createdAt,value
2019-03-09T00:01:53.703Z,4.63
2019-03-09T00:06:56.934Z,9.63
2019-03-09T00:11:59.034Z,6.20
2019-03-09T00:17:01.124Z,6.63
2019-03-09T00:22:04.366Z,5.43
2019-03-09T00:27:29.231Z,6.60
2019-03-09T00:32:25.923Z,8.27
2019-03-09T00:37:28.064Z,5.57
2019-03-09T00:42:30.193Z,6.53
2019-03-09T00:47:32.285Z,5.00
2019-03-09T00:52:34.379Z,5.90
2019-03-09T00:57:36.740Z,4.13
2019-03-09T01:02:38.834Z,13.73
2019-03-09T01:07:40.871Z,5.47
2019-03-09T01:12:42.913Z,4.70
2019-03-09T01:17:45.068Z,7.00
2019-03-09T01:22:47.077Z,6.40
2019-03-09T01:27:49.152Z,4.60
2019-03-09T01:32:51.245Z,5.90
2019-03-09T01:37:53.412Z,8.97
2019-03-09T01:42:55.490Z,11.73
2019-03-09T01:47:57.573Z,8.67
2019-03-09T01:52:59.680Z,6.53
2019-03-09T01:58:01.782Z,6.13
2019-03-09T02:03:03.766Z,5.23
2019-03-09T02:08:05.850Z,10.40
2019-03-09T02:13:07.926Z,6.27
2019-03-09T02:18:09.972Z,9.73
2019-03-09T02:23:12.062Z,6.43
2019-03-09T02:28:14.149Z,6.37
2019-03-09T02:33:16.209Z,8.97
2019-03-09T02:38:43.909Z,10.20
2019-03-09T02:43:46.004Z,9.00
2019-03-09T02:48:48.086Z,7.93
2019-03-09T02:53:50.217Z,7.97
2019-03-09T02:58:52.303Z,8.33
2019-03-09T03:03:54.440Z,8.33
2019-03-09T03:08:56.552Z,5.97
2019-03-09T03:13:59.676Z,8.73
2019-03-09T03:19:01.720Z,5.90
2019-03-09T03:24:03.785Z,8.83
2019-03-09T03:29:06.974Z,9.87
2019-03-09T03:34:09.065Z,7.73
2019-03-09T03:39:11.192Z,8.23
2019-03-09T03:44:13.263Z,6.30
2019-03-09T03:49:15.320Z,7.07
2019-03-09T03:54:17.349Z,5.63
2019-03-09T03:59:19.639Z,6.17
2019-03-09T04:04:21.731Z,7.87
2019-03-09T04:09:24.152Z,8.13
2019-03-09T04:14:26.257Z,7.50
2019-03-09T04:19:30.235Z,7.53
2019-03-09T04:24:36.853Z,4.67
2019-03-09T04:29:40.866Z,5.43
2019-03-09T04:34:43.065Z,7.43
2019-03-09T04:39:45.214Z,6.33
2019-03-09T04:44:47.299Z,7.87
2019-03-09T04:49:49.334Z,3.47
2019-03-09T04:54:51.395Z,4.73
2019-03-09T04:59:53.520Z,4.80
2019-03-09T05:04:55.809Z,9.40
2019-03-09T05:10:13.346Z,6.40
2019-03-09T05:15:15.497Z,3.37
2019-03-09T05:20:19.710Z,8.30
2019-03-09T05:25:21.772Z,7.63
2019-03-09T05:30:43.158Z,5.30
2019-03-09T05:35:45.268Z,8.67
2019-03-09T05:40:47.347Z,4.93
2019-03-09T05:45:49.380Z,5.67
2019-03-09T05:50:51.529Z,4.00
2019-03-09T05:55:53.580Z,4.33
2019-03-09T06:01:05.292Z,5.30
2019-03-09T06:06:14.311Z,8.23
2019-03-09T06:11:18.029Z,5.90
2019-03-09T06:16:20.116Z,4.43
2019-03-09T06:21:22.195Z,4.97
2019-03-09T06:26:24.316Z,3.90
2019-03-09T06:31:26.566Z,6.63
2019-03-09T06:36:55.232Z,3.50
2019-03-09T06:42:32.171Z,3.87
2019-03-09T06:47:34.364Z,2.97
2019-03-09T06:52:36.534Z,3.33
2019-03-09T06:57:38.591Z,2.67
2019-03-09T07:02:40.691Z,4.93
2019-03-09T07:07:44.821Z,3.17
2019-03-09T07:12:46.829Z,2.73
2019-03-09T07:18:00.553Z,1.80
2019-03-09T07:23:02.616Z,2.20
2019-03-09T07:28:06.590Z,2.60
2019-03-09T07:33:08.768Z,2.23
2019-03-09T07:38:10.950Z,2.33
2019-03-09T07:43:13.138Z,1.20
2019-03-09T07:48:15.219Z,1.77
2019-03-09T07:53:17.335Z,0.70
2019-03-09T07:58:21.038Z,1.70
2019-03-09T08:03:23.128Z,0.67
2019-03-09T08:08:25.260Z,0.97
2019-03-09T08:13:27.306Z,0.50
2019-03-09T08:18:29.285Z,1.23
2019-03-09T08:23:31.332Z,1.17
2019-03-09T08:28:33.462Z,0.73
2019-03-09T08:33:35.594Z,1.07
2019-03-09T08:38:37.679Z,0.97
2019-03-09T08:43:39.779Z,0.93
2019-03-09T08:48:41.833Z,0.80
2019-03-09T08:53:44.020Z,1.27
2019-03-09T08:58:48.318Z,1.73
2019-03-09T09:03:51.713Z,0.97
2019-03-09T09:08:53.784Z,1.43
2019-03-09T09:13:55.878Z,1.13
2019-03-09T09:18:59.019Z,1.27
2019-03-09T09:24:01.555Z,1.03
2019-03-09T09:29:05.567Z,0.60
2019-03-09T09:34:07.737Z,5.13
2019-03-09T09:39:10.059Z,0.70
2019-03-09T09:44:12.345Z,1.23
2019-03-09T09:49:14.627Z,1.60
2019-03-09T09:54:16.681Z,1.17
2019-03-09T09:59:20.676Z,1.77
2019-03-09T10:04:22.755Z,1.53
2019-03-09T10:09:24.808Z,2.33
2019-03-09T10:14:27.078Z,2.17
2019-03-09T10:19:29.194Z,3.03
2019-03-09T10:24:31.275Z,2.70
2019-03-09T10:29:33.343Z,2.37
2019-03-09T10:34:35.431Z,2.63
2019-03-09T10:39:37.906Z,1.70
2019-03-09T10:44:40.189Z,3.67
2019-03-09T10:49:42.163Z,1.93
2019-03-09T10:54:46.167Z,2.70
2019-03-09T10:59:48.309Z,2.57
2019-03-09T11:04:50.503Z,2.23
2019-03-09T11:09:52.637Z,4.87
2019-03-09T11:14:54.800Z,2.47
2019-03-09T11:19:57.169Z,2.57
2019-03-09T11:25:03.273Z,2.87
2019-03-09T11:30:03.572Z,2.87
2019-03-09T11:35:05.627Z,1.97
2019-03-09T11:40:07.816Z,4.37
2019-03-09T11:45:10.306Z,5.43
2019-03-09T11:50:14.487Z,2.47
2019-03-09T11:55:16.825Z,2.57
2019-03-09T12:00:23.440Z,1.20
2019-03-09T12:05:25.532Z,2.73
2019-03-09T12:10:27.689Z,2.67
2019-03-09T12:15:29.756Z,3.50
2019-03-09T12:20:32.499Z,4.07
2019-03-09T12:25:34.743Z,3.00
2019-03-09T12:30:36.854Z,2.83
2019-03-09T12:35:38.940Z,1.47
2019-03-09T12:40:40.995Z,4.80
2019-03-09T12:45:43.104Z,1.60
2019-03-09T12:50:45.168Z,3.23
2019-03-09T12:55:47.123Z,2.00
2019-03-09T13:00:49.193Z,3.37
2019-03-09T13:05:51.248Z,2.00
2019-03-09T13:10:56.347Z,1.60
2019-03-09T13:15:58.362Z,1.53
2019-03-09T13:21:00.466Z,1.83
2019-03-09T13:26:02.512Z,5.87
2019-03-09T13:31:04.567Z,4.10
2019-03-09T13:36:07.383Z,3.53
2019-03-09T13:41:09.481Z,1.90
2019-03-09T13:46:11.514Z,2.97
2019-03-09T13:51:13.548Z,3.73
2019-03-09T13:56:15.611Z,1.30
2019-03-09T14:01:17.665Z,1.67
2019-03-09T14:06:19.739Z,2.27
2019-03-09T14:11:21.840Z,2.23
2019-03-09T14:16:23.935Z,2.03
2019-03-09T14:21:25.971Z,2.47
2019-03-09T14:26:28.060Z,4.43
2019-03-09T14:31:30.397Z,4.83
2019-03-09T14:36:32.472Z,1.53
2019-03-09T14:41:34.562Z,2.50
2019-03-09T14:46:36.619Z,3.53
2019-03-09T14:51:38.688Z,0.80
2019-03-09T14:56:40.765Z,1.37
2019-03-09T15:01:42.806Z,0.77
2019-03-09T15:06:44.874Z,1.30
2019-03-09T15:11:46.926Z,2.73
2019-03-09T15:16:49.020Z,3.20
2019-03-09T15:21:51.054Z,2.57
2019-03-09T15:26:53.205Z,2.17
2019-03-09T15:31:55.288Z,1.20
2019-03-09T15:36:57.322Z,3.97
2019-03-09T15:41:59.437Z,1.67
2019-03-09T15:47:01.741Z,0.70
2019-03-09T15:52:03.771Z,0.97
2019-03-09T15:57:05.876Z,1.07
2019-03-09T16:02:09.328Z,1.30
2019-03-09T16:07:11.380Z,1.37
2019-03-09T16:12:13.460Z,0.70
2019-03-09T16:17:15.569Z,0.57
2019-03-09T16:22:17.652Z,1.70
2019-03-09T16:27:19.718Z,1.97
2019-03-09T16:32:21.806Z,2.00
2019-03-09T16:37:23.895Z,2.40
2019-03-09T16:42:26.022Z,1.80
2019-03-09T16:47:28.075Z,2.17
2019-03-09T16:52:30.144Z,0.73
2019-03-09T16:57:32.249Z,1.10
2019-03-09T17:02:36.732Z,0.90
2019-03-09T17:07:38.839Z,1.17
2019-03-09T17:12:40.908Z,2.07
2019-03-09T17:17:42.952Z,2.20
2019-03-09T17:22:47.168Z,1.37
2019-03-09T17:27:49.213Z,1.60
2019-03-09T17:32:51.253Z,1.67
2019-03-09T17:37:53.336Z,1.60
2019-03-09T17:42:55.435Z,1.80
2019-03-09T17:47:57.504Z,4.03
2019-03-09T17:52:59.555Z,1.40
2019-03-09T17:58:01.638Z,4.23
2019-03-09T18:03:03.695Z,2.03
2019-03-09T18:08:05.813Z,3.17
2019-03-09T18:13:07.841Z,2.50
2019-03-09T18:18:09.874Z,2.37
2019-03-09T18:23:11.935Z,4.80
2019-03-09T18:28:14.366Z,2.50
2019-03-09T18:33:16.429Z,2.53
2019-03-09T18:38:18.464Z,1.83
2019-03-09T18:43:20.937Z,1.10
2019-03-09T18:48:23.010Z,2.37
2019-03-09T18:53:25.062Z,1.90
2019-03-09T18:58:27.124Z,2.33
2019-03-09T19:03:29.157Z,2.37
2019-03-09T19:08:31.261Z,4.00
2019-03-09T19:13:33.319Z,2.17
2019-03-09T19:18:35.327Z,2.17
2019-03-09T19:23:37.353Z,2.60
2019-03-09T19:28:39.387Z,2.57
2019-03-09T19:33:41.454Z,3.27
2019-03-09T19:38:43.523Z,2.13
2019-03-09T19:43:45.626Z,2.37
2019-03-09T19:48:47.682Z,4.37
2019-03-09T19:53:49.715Z,2.67
2019-03-09T19:58:51.789Z,2.60
2019-03-09T20:03:53.836Z,2.60
2019-03-09T20:08:55.891Z,3.00
2019-03-09T20:13:57.956Z,3.80
2019-03-09T20:19:00.012Z,5.83
2019-03-09T20:24:02.078Z,4.73
2019-03-09T20:29:04.116Z,3.57
2019-03-09T20:34:06.197Z,2.53
2019-03-09T20:39:08.685Z,4.90
2019-03-09T20:44:10.743Z,4.07
2019-03-09T20:49:12.795Z,2.77
2019-03-09T20:54:14.873Z,2.67
2019-03-09T20:59:16.974Z,1.60
2019-03-09T21:04:19.056Z,4.50
2019-03-09T21:09:21.187Z,4.93
2019-03-09T21:14:23.255Z,4.17
2019-03-09T21:19:25.363Z,4.17
2019-03-09T21:24:27.398Z,6.73
2019-03-09T21:29:29.438Z,4.57
2019-03-09T21:34:31.520Z,2.90
2019-03-09T21:39:33.586Z,3.17
2019-03-09T21:44:35.697Z,5.33
2019-03-09T21:49:37.738Z,5.57
2019-03-09T21:54:39.773Z,5.73
2019-03-09T21:59:41.909Z,4.90
2019-03-09T22:04:43.966Z,5.70
2019-03-09T22:09:46.002Z,3.80
2019-03-09T22:14:48.090Z,3.93
2019-03-09T22:19:50.494Z,5.20
2019-03-09T22:24:52.549Z,4.63
2019-03-09T22:29:54.586Z,5.73
2019-03-09T22:34:56.663Z,8.17
2019-03-09T22:39:58.695Z,3.73
2019-03-09T22:45:00.750Z,7.97
2019-03-09T22:50:03.111Z,5.63
2019-03-09T22:55:05.375Z,4.10
2019-03-09T23:00:10.274Z,2.73
2019-03-09T23:05:12.510Z,3.87
2019-03-09T23:10:15.251Z,5.83
2019-03-09T23:15:17.428Z,4.07
2019-03-09T23:20:21.637Z,4.30
2019-03-09T23:25:23.773Z,5.00
2019-03-09T23:30:25.823Z,7.50
2019-03-09T23:35:27.897Z,4.90
2019-03-09T23:40:30.060Z,4.33
2019-03-09T23:45:32.102Z,6.33
2019-03-09T23:50:34.162Z,5.40
2019-03-09T23:55:36.241Z,8.10
